首页
METAR-TAF:

METAR-TAF

机场 :

格洛斯特, 英格兰

纬度: 51-54N, 经度: 002-10W, 海拔: 29米

当前天气观测

该预报发布于38分钟前的13:20 UTC
风速5节,风向东南,在南转南东之间变化
温度 23°C
湿度 38%
气压 1024 hPa
能见度10公里或以上
1500米以下无云,无积雨云

METAR: EGBJ 091320Z 13005KT 080V160 CAVOK 23/08 Q1024

时间: 14:58 (13:58 UTC)

预报

该预报发布于3小时和3分钟前的10:55 UTC
预报有效从09日的 12点(UTC)到 09日的 17点(UTC)
风速4节,风向多变
能见度10公里或以上
1500米以下无云,无积雨云

TAF: EGBJ 091055Z 0912/0917 VRB04KT CAVOK

超过4000个机场的气象观测和天气预报(METAR&TAF报告)。

可查询的气象台以黄色和红色小点在地图上表示。

将鼠标移到小点上方,可查看气象台名称。

然后点击查看天气观测和预报。

如需切换地图:点击带黑十字的绿色按钮放大地图;点击带横线的绿色按钮缩小地图;或者点击绿色箭头查看邻近地区的地图。


METAR-TAF: